Mirage, Colorado
Current Conditions -  °F | °C
As of 6:25 AM on Wednesday 26 Nov 2014 (Local Time) from KRCV Reporting Station
Overcast Overcast  
Wind Chill: 13°   Ceiling: 6000
Heat Index: 21°   Visibility: 10mi
Dew Point: 13°   Wind: 7mph
Humidity: 70%   Direction: 270°W
Pressure: 30.29"   Gusts: NA
Location:  37.9777°N, 105.779°W
Report Text: KRCV 261325Z AUTO 27006KT 10SM OVC060 M06/M11 A3029 RMK AO2 T10601106
Loading
Personal Weather Stations






























Interactive Weather Map New forecast layout! Learn more

10-Day Weather Forecast

Advertisements
Track Severe Weather on mobile